createdAt,value
2018-04-19T00:00:45.834Z,75.85
2018-04-19T00:01:45.834Z,75.18
2018-04-19T00:02:45.832Z,75.76
2018-04-19T00:03:45.830Z,75.57
2018-04-19T00:04:45.830Z,76.33
2018-04-19T00:05:45.827Z,76.23
2018-04-19T00:06:45.827Z,76.23
2018-04-19T00:07:45.831Z,76.52
2018-04-19T00:08:45.822Z,76.23
2018-04-19T00:09:45.823Z,76.81
2018-04-19T00:10:45.821Z,76.23
2018-04-19T00:11:45.829Z,76.23
2018-04-19T00:12:45.823Z,76.23
2018-04-19T00:13:45.816Z,76.33
2018-04-19T00:14:45.814Z,76.14
2018-04-19T00:15:45.819Z,76.14
2018-04-19T00:16:45.811Z,76.04
2018-04-19T00:17:45.808Z,76.42
2018-04-19T00:18:45.808Z,76.23
2018-04-19T00:19:45.806Z,76.04
2018-04-19T00:20:45.822Z,75.66
2018-04-19T00:21:45.805Z,75.95
2018-04-19T00:22:45.804Z,75.57
2018-04-19T00:23:45.805Z,75.66
2018-04-19T00:24:45.799Z,75.47
2018-04-19T00:25:45.796Z,75.66
2018-04-19T00:26:45.796Z,75.91
2018-04-19T00:27:45.799Z,75.76
2018-04-19T00:28:45.790Z,76.01
2018-04-19T00:29:45.788Z,75.85
2018-04-19T00:30:45.788Z,76.33
2018-04-19T00:31:45.788Z,76.29
2018-04-19T00:32:45.786Z,76.14
2018-04-19T00:33:45.785Z,76.33
2018-04-19T00:34:45.782Z,75.76
2018-04-19T00:35:45.783Z,76.33
2018-04-19T00:36:45.779Z,76.10
2018-04-19T00:37:45.779Z,76.20
2018-04-19T00:38:45.776Z,75.91
2018-04-19T00:39:45.776Z,76.10
2018-04-19T00:40:45.774Z,75.91
2018-04-19T00:41:45.771Z,76.14
2018-04-19T00:42:45.768Z,76.04
2018-04-19T00:43:45.771Z,76.33
2018-04-19T00:44:45.767Z,76.57
2018-04-19T00:45:45.766Z,76.57
2018-04-19T00:46:45.763Z,76.29
2018-04-19T00:47:45.762Z,76.57
2018-04-19T00:48:45.760Z,76.14
2018-04-19T00:49:45.764Z,76.39
2018-04-19T00:50:45.758Z,76.48
2018-04-19T00:51:45.756Z,76.10
2018-04-19T00:52:45.754Z,75.91
2018-04-19T00:53:45.755Z,76.57
2018-04-19T00:54:45.750Z,76.20
2018-04-19T00:55:45.753Z,76.01
2018-04-19T00:56:45.749Z,75.53
2018-04-19T00:57:45.748Z,75.53
2018-04-19T00:58:45.746Z,75.72
2018-04-19T00:59:45.742Z,76.20
2018-04-19T01:00:45.745Z,76.20
2018-04-19T01:01:45.742Z,76.10
2018-04-19T01:02:45.737Z,76.67
2018-04-19T01:03:45.736Z,75.81
2018-04-19T01:04:45.741Z,75.81
2018-04-19T01:05:45.731Z,75.53
2018-04-19T01:06:45.727Z,76.67
2018-04-19T01:07:45.729Z,76.01
2018-04-19T01:08:45.726Z,76.29
2018-04-19T01:09:45.730Z,76.48
2018-04-19T01:10:45.737Z,76.29
2018-04-19T01:11:45.721Z,77.25
2018-04-19T01:12:45.719Z,76.39
2018-04-19T01:13:45.720Z,75.43
2018-04-19T01:14:45.717Z,74.92
2018-04-19T01:15:45.713Z,75.59
2018-04-19T01:16:45.712Z,75.11
2018-04-19T01:17:45.710Z,75.01
2018-04-19T01:18:45.705Z,75.68
2018-04-19T01:19:45.706Z,75.49
2018-04-19T01:20:45.703Z,75.59
2018-04-19T01:21:45.700Z,75.87
2018-04-19T01:22:45.705Z,75.87
2018-04-19T01:23:45.698Z,75.01
2018-04-19T01:24:45.695Z,75.49
2018-04-19T01:25:45.701Z,75.59
2018-04-19T01:26:45.692Z,75.49
2018-04-19T01:27:45.691Z,75.59
2018-04-19T01:28:45.692Z,75.59
2018-04-19T01:29:45.689Z,76.25
2018-04-19T01:30:45.685Z,75.53
2018-04-19T01:31:45.685Z,75.78
2018-04-19T01:32:45.674Z,75.01
2018-04-19T01:33:45.675Z,75.11
2018-04-19T01:34:45.678Z,75.15
2018-04-19T01:35:45.677Z,75.11
2018-04-19T01:36:45.669Z,75.53
2018-04-19T01:37:45.676Z,75.53
2018-04-19T01:38:45.670Z,75.72
2018-04-19T01:39:45.666Z,75.49
2018-04-19T01:40:45.665Z,75.91
2018-04-19T01:41:45.692Z,75.43
2018-04-19T01:42:45.658Z,75.53
2018-04-19T01:43:45.658Z,75.68
2018-04-19T01:44:45.655Z,75.49
2018-04-19T01:45:45.652Z,75.53
2018-04-19T01:46:45.650Z,75.59
2018-04-19T01:47:45.650Z,75.11
2018-04-19T01:48:45.649Z,75.01
2018-04-19T01:49:45.648Z,74.82
2018-04-19T01:50:45.644Z,74.92
2018-04-19T01:51:45.647Z,75.30
2018-04-19T01:52:45.638Z,75.49
2018-04-19T01:53:45.633Z,75.68
2018-04-19T01:54:45.635Z,75.40
2018-04-19T01:55:45.633Z,74.82
2018-04-19T01:56:45.627Z,74.92
2018-04-19T01:57:45.631Z,74.92
2018-04-19T01:58:45.626Z,74.35
2018-04-19T01:59:45.630Z,74.63
2018-04-19T02:00:45.627Z,74.82
2018-04-19T02:01:45.619Z,75.01
2018-04-19T02:02:45.617Z,74.92
2018-04-19T02:03:45.621Z,74.92
2018-04-19T02:04:45.611Z,74.92
2018-04-19T02:05:45.611Z,74.63
2018-04-19T02:06:45.615Z,74.82
2018-04-19T02:07:45.606Z,74.82
2018-04-19T02:08:45.604Z,73.77
2018-04-19T02:09:45.601Z,73.39
2018-04-19T02:10:45.602Z,73.11
2018-04-19T02:11:45.600Z,73.77
2018-04-19T02:12:45.594Z,73.49
2018-04-19T02:13:45.592Z,73.87
2018-04-19T02:14:45.590Z,73.07
2018-04-19T02:15:45.588Z,73.36
2018-04-19T02:16:45.582Z,72.97
2018-04-19T02:17:45.583Z,72.92
2018-04-19T02:18:45.580Z,72.60
2018-04-19T02:19:45.577Z,73.01
2018-04-19T02:20:45.577Z,73.01
2018-04-19T02:21:45.574Z,72.88
2018-04-19T02:22:45.568Z,73.49
2018-04-19T02:23:45.574Z,73.45
2018-04-19T02:24:45.565Z,73.17
2018-04-19T02:25:45.563Z,73.65
2018-04-19T02:26:45.562Z,73.17
2018-04-19T02:27:45.554Z,73.17
2018-04-19T02:28:45.554Z,72.82
2018-04-19T02:29:45.552Z,72.63
2018-04-19T02:30:45.549Z,73.39
2018-04-19T02:31:45.548Z,73.21
2018-04-19T02:32:45.547Z,73.30
2018-04-19T02:33:45.542Z,73.96
2018-04-19T02:34:45.546Z,73.49
2018-04-19T02:35:45.597Z,73.45
2018-04-19T02:36:45.535Z,73.49
2018-04-19T02:37:45.535Z,72.97
2018-04-19T02:38:45.527Z,73.36
2018-04-19T02:39:45.528Z,73.68
2018-04-19T02:40:45.525Z,73.21
2018-04-19T02:41:45.523Z,73.07
2018-04-19T02:42:45.521Z,73.87
2018-04-19T02:43:45.521Z,73.39
2018-04-19T02:44:45.514Z,73.77
2018-04-19T02:45:45.516Z,73.74
2018-04-19T02:46:45.510Z,73.36
2018-04-19T02:47:45.507Z,72.97
2018-04-19T02:48:45.519Z,73.17
2018-04-19T02:49:45.512Z,73.36
2018-04-19T02:50:45.500Z,73.17
2018-04-19T02:51:45.498Z,73.36
2018-04-19T02:52:45.497Z,72.97
2018-04-19T02:53:45.492Z,73.26
2018-04-19T02:54:45.488Z,72.69
2018-04-19T02:55:45.484Z,73.36
2018-04-19T02:56:45.493Z,73.17
2018-04-19T02:57:45.482Z,72.60
2018-04-19T02:58:45.485Z,72.69
2018-04-19T02:59:45.476Z,72.88
2018-04-19T03:00:45.469Z,72.69
2018-04-19T03:01:45.471Z,72.69
2018-04-19T03:02:45.465Z,72.88
2018-04-19T03:03:45.468Z,72.60
2018-04-19T03:04:45.463Z,72.60
2018-04-19T03:05:45.461Z,73.07
2018-04-19T03:06:45.456Z,72.78
2018-04-19T03:07:45.460Z,72.69
2018-04-19T03:08:45.452Z,72.60
2018-04-19T03:09:45.450Z,72.97
2018-04-19T03:10:45.447Z,72.88
2018-04-19T03:11:45.444Z,72.97
2018-04-19T03:12:45.442Z,72.50
2018-04-19T03:13:45.440Z,72.88
2018-04-19T03:14:45.434Z,72.78
2018-04-19T03:15:45.435Z,73.26
2018-04-19T03:16:45.430Z,72.88
2018-04-19T03:17:45.427Z,72.88
2018-04-19T03:18:45.430Z,73.07
2018-04-19T03:19:45.421Z,73.26
2018-04-19T03:20:45.421Z,72.60
2018-04-19T03:21:45.415Z,72.78
2018-04-19T03:22:45.412Z,72.50
2018-04-19T03:23:45.411Z,72.69
2018-04-19T03:24:45.406Z,72.88
2018-04-19T03:25:45.404Z,72.69
2018-04-19T03:26:45.404Z,72.88
2018-04-19T03:27:45.399Z,72.97
2018-04-19T03:28:45.401Z,72.69
2018-04-19T03:29:45.396Z,72.41
2018-04-19T03:30:45.391Z,72.69
2018-04-19T03:31:45.387Z,72.69
2018-04-19T03:32:45.389Z,72.78
2018-04-19T03:33:45.379Z,72.50
2018-04-19T03:34:45.381Z,72.88
2018-04-19T03:35:45.376Z,72.94
2018-04-19T03:36:45.372Z,72.69
2018-04-19T03:37:45.370Z,73.22
2018-04-19T03:38:45.368Z,72.69
2018-04-19T03:39:45.368Z,72.69
2018-04-19T03:40:45.391Z,72.60
2018-04-19T03:41:45.358Z,72.50
2018-04-19T03:42:45.362Z,72.69
2018-04-19T03:43:45.358Z,72.69
2018-04-19T03:44:45.350Z,72.41
2018-04-19T03:45:45.349Z,72.69
2018-04-19T03:46:45.345Z,73.07
2018-04-19T03:47:45.344Z,73.03
2018-04-19T03:48:45.339Z,73.32
2018-04-19T03:49:45.339Z,72.88
2018-04-19T03:50:45.337Z,72.88
2018-04-19T03:51:45.331Z,72.69
2018-04-19T03:52:45.331Z,73.26
2018-04-19T03:53:45.330Z,72.69
2018-04-19T03:54:45.319Z,72.69
2018-04-19T03:55:45.318Z,72.78
2018-04-19T03:56:45.319Z,72.60
2018-04-19T03:57:45.314Z,72.78
2018-04-19T03:58:45.314Z,72.88
2018-04-19T03:59:45.309Z,72.88
2018-04-19T04:00:45.305Z,73.17
2018-04-19T04:01:45.312Z,72.60
2018-04-19T04:02:45.300Z,72.69
2018-04-19T04:03:45.298Z,72.69
2018-04-19T04:04:45.293Z,72.69
2018-04-19T04:05:45.288Z,72.97
2018-04-19T04:06:45.289Z,72.69
2018-04-19T04:07:45.290Z,72.78
2018-04-19T04:08:45.283Z,72.88
2018-04-19T04:09:45.282Z,72.69
2018-04-19T04:10:45.279Z,72.78
2018-04-19T04:11:45.276Z,72.60
2018-04-19T04:12:45.269Z,73.17
2018-04-19T04:13:45.269Z,72.78
2018-04-19T04:14:45.265Z,72.78
2018-04-19T04:15:45.262Z,72.60
2018-04-19T04:16:45.259Z,72.78
2018-04-19T04:17:45.257Z,73.36
2018-04-19T04:18:45.254Z,73.17
2018-04-19T04:19:45.251Z,72.97
2018-04-19T04:20:45.248Z,73.07
2018-04-19T04:21:45.246Z,72.88
2018-04-19T04:22:45.249Z,72.69
2018-04-19T04:23:45.239Z,72.60
2018-04-19T04:24:45.236Z,73.07
2018-04-19T04:25:45.235Z,73.07
2018-04-19T04:26:45.229Z,73.26
2018-04-19T04:27:45.226Z,73.26
2018-04-19T04:28:45.224Z,73.26
2018-04-19T04:29:45.221Z,73.65
2018-04-19T04:30:45.216Z,73.65
2018-04-19T04:31:45.216Z,73.17
2018-04-19T04:32:45.210Z,73.07
2018-04-19T04:33:45.217Z,73.36
2018-04-19T04:34:45.210Z,73.55
2018-04-19T04:35:45.205Z,73.74
2018-04-19T04:36:45.199Z,73.65
2018-04-19T04:37:45.196Z,73.93
2018-04-19T04:38:45.196Z,73.87
2018-04-19T04:39:45.193Z,73.87
2018-04-19T04:40:45.188Z,74.06
2018-04-19T04:41:45.187Z,74.06
2018-04-19T04:42:45.184Z,73.96
2018-04-19T04:43:45.181Z,73.87
2018-04-19T04:44:45.179Z,74.25
2018-04-19T04:45:45.177Z,73.77
2018-04-19T04:46:45.172Z,73.96
2018-04-19T04:47:45.174Z,74.44
2018-04-19T04:48:45.164Z,73.77
2018-04-19T04:49:45.164Z,73.96
2018-04-19T04:50:45.161Z,74.35
2018-04-19T04:51:45.158Z,74.06
2018-04-19T04:52:45.155Z,73.96
2018-04-19T04:53:45.151Z,74.16
2018-04-19T04:54:45.153Z,73.96
2018-04-19T04:55:45.146Z,74.57
2018-04-19T04:56:45.143Z,74.29
2018-04-19T04:57:45.141Z,74.86
2018-04-19T04:58:45.138Z,74.77
2018-04-19T04:59:45.135Z,75.05
2018-04-19T05:00:45.132Z,75.72
2018-04-19T05:01:45.130Z,75.62
2018-04-19T05:02:45.130Z,76.04
2018-04-19T05:03:45.126Z,77.03
2018-04-19T05:04:45.122Z,78.89
2018-04-19T05:05:45.148Z,80.04
2018-04-19T05:06:45.118Z,81.03
2018-04-19T05:07:45.116Z,81.16
2018-04-19T05:08:45.114Z,81.68
2018-04-19T05:09:45.106Z,82.20
2018-04-19T05:10:45.105Z,81.92
2018-04-19T05:11:45.109Z,83.11
2018-04-19T05:12:45.103Z,83.63
2018-04-19T05:13:45.099Z,82.38
2018-04-19T05:14:45.108Z,83.58
2018-04-19T05:15:45.101Z,83.29
2018-04-19T05:16:45.098Z,83.42
2018-04-19T05:17:45.135Z,83.33
2018-04-19T05:18:45.093Z,84.19
2018-04-19T05:19:45.092Z,84.91
2018-04-19T05:20:45.091Z,85.00
2018-04-19T05:21:45.093Z,85.58
2018-04-19T05:22:45.086Z,85.19
2018-04-19T05:23:45.089Z,85.62
2018-04-19T05:24:45.089Z,86.05
2018-04-19T05:25:45.086Z,86.14
2018-04-19T05:26:45.086Z,86.72
2018-04-19T05:27:45.083Z,86.76
2018-04-19T05:28:45.084Z,86.66
2018-04-19T05:29:45.081Z,86.38
2018-04-19T05:30:45.083Z,86.32
2018-04-19T05:31:45.081Z,86.13
2018-04-19T05:32:45.079Z,85.99
2018-04-19T05:33:45.083Z,86.09
2018-04-19T05:34:45.077Z,85.94
2018-04-19T05:35:45.072Z,85.60
2018-04-19T05:36:45.078Z,83.58
2018-04-19T05:37:45.080Z,82.85
2018-04-19T05:38:45.077Z,81.88
2018-04-19T05:39:45.077Z,83.04
2018-04-19T05:40:45.085Z,81.93
2018-04-19T05:41:45.083Z,80.96
2018-04-19T05:42:45.078Z,80.91
2018-04-19T05:43:45.091Z,78.73
2018-04-19T05:44:45.079Z,77.19
2018-04-19T05:45:45.079Z,76.51
2018-04-19T05:46:45.081Z,75.10
2018-04-19T05:47:45.078Z,72.99
2018-04-19T05:48:45.082Z,71.92
2018-04-19T05:49:45.083Z,71.67
2018-04-19T05:50:45.084Z,69.64
2018-04-19T05:51:45.085Z,71.12
2018-04-19T05:52:45.083Z,67.07
2018-04-19T05:53:45.087Z,65.24
2018-04-19T05:54:45.090Z,65.82
2018-04-19T05:55:45.103Z,65.47
2018-04-19T05:56:45.089Z,64.50
2018-04-19T05:57:45.091Z,63.95
2018-04-19T05:58:45.110Z,63.08
2018-04-19T05:59:45.101Z,62.50
2018-04-19T06:00:45.101Z,62.53
2018-04-19T06:01:45.112Z,60.57
2018-04-19T06:02:45.101Z,62.02
2018-04-19T06:03:45.106Z,61.63
2018-04-19T06:04:45.113Z,61.34
2018-04-19T06:05:45.123Z,59.83
2018-04-19T06:06:45.115Z,59.28
2018-04-19T06:07:45.121Z,58.72
2018-04-19T06:08:45.122Z,57.66
2018-04-19T06:09:45.116Z,57.20
2018-04-19T06:10:45.133Z,56.70
2018-04-19T06:11:45.130Z,57.76
2018-04-19T06:12:45.129Z,57.66
2018-04-19T06:13:45.128Z,58.53
2018-04-19T06:14:45.135Z,56.67
2018-04-19T06:15:45.142Z,57.73
2018-04-19T06:16:45.134Z,56.09
2018-04-19T06:17:45.138Z,57.86
2018-04-19T06:18:45.141Z,56.30
2018-04-19T06:19:45.146Z,56.70
2018-04-19T06:20:45.151Z,56.98
2018-04-19T06:21:45.152Z,56.60
2018-04-19T06:22:45.154Z,56.43
2018-04-19T06:23:45.162Z,55.58
2018-04-19T06:24:45.160Z,54.16
2018-04-19T06:25:45.166Z,53.41
2018-04-19T06:26:45.173Z,51.96
2018-04-19T06:27:45.173Z,52.15
2018-04-19T06:28:45.177Z,51.96
2018-04-19T06:29:45.181Z,51.93
2018-04-19T06:30:45.184Z,52.39
2018-04-19T06:31:45.188Z,53.75
2018-04-19T06:32:45.196Z,53.85
2018-04-19T06:33:45.200Z,54.26
2018-04-19T06:34:45.204Z,52.76
2018-04-19T06:35:45.209Z,52.98
2018-04-19T06:36:45.210Z,51.81
2018-04-19T06:37:45.215Z,52.20
2018-04-19T06:38:45.218Z,49.87
2018-04-19T06:39:45.224Z,50.09
2018-04-19T06:40:45.230Z,50.36
2018-04-19T06:41:45.234Z,50.67
2018-04-19T06:42:45.238Z,51.52
2018-04-19T06:43:45.244Z,52.51
2018-04-19T06:44:45.249Z,52.27
2018-04-19T06:45:45.255Z,54.73
2018-04-19T06:46:45.262Z,55.60
2018-04-19T06:47:45.268Z,55.05
2018-04-19T06:48:45.269Z,55.79
2018-04-19T06:49:45.274Z,56.28
2018-04-19T06:50:45.283Z,56.40
2018-04-19T06:51:45.287Z,56.02
2018-04-19T06:52:45.290Z,54.52
2018-04-19T06:53:45.299Z,52.90
2018-04-19T06:54:45.301Z,52.95
2018-04-19T06:55:45.369Z,50.99
2018-04-19T06:56:45.504Z,51.78
2018-04-19T06:57:45.316Z,53.75
2018-04-19T06:58:45.322Z,53.65
2018-04-19T06:59:45.326Z,52.83
2018-04-19T07:00:45.334Z,52.06
2018-04-19T07:01:45.340Z,51.28
2018-04-19T07:02:45.346Z,51.96
2018-04-19T07:03:45.350Z,51.28
2018-04-19T07:04:45.357Z,51.14
2018-04-19T07:05:45.365Z,49.99
2018-04-19T07:06:45.371Z,49.82
2018-04-19T07:07:45.377Z,50.02
2018-04-19T07:08:45.380Z,52.78
2018-04-19T07:09:45.389Z,54.52
2018-04-19T07:10:45.394Z,54.74
2018-04-19T07:11:45.404Z,52.85
2018-04-19T07:12:45.403Z,55.70
2018-04-19T07:13:45.414Z,57.29
2018-04-19T07:14:45.441Z,60.09
2018-04-19T07:15:45.427Z,61.47
2018-04-19T07:16:45.433Z,63.79
2018-04-19T07:17:45.441Z,62.25
2018-04-19T07:18:45.450Z,62.28
2018-04-19T07:19:45.456Z,61.73
2018-04-19T07:20:45.461Z,60.24
2018-04-19T07:21:45.466Z,58.31
2018-04-19T07:22:45.476Z,58.50
2018-04-19T07:23:45.478Z,58.40
2018-04-19T07:24:45.485Z,57.66
2018-04-19T07:25:45.498Z,57.14
2018-04-19T07:26:45.499Z,54.50
2018-04-19T07:27:45.505Z,52.71
2018-04-19T07:28:45.511Z,54.52
2018-04-19T07:29:45.513Z,54.64
2018-04-19T07:30:45.525Z,54.59
2018-04-19T07:31:45.531Z,54.79
2018-04-19T07:32:45.539Z,55.40
2018-04-19T07:33:45.544Z,54.45
2018-04-19T07:34:45.552Z,53.53
2018-04-19T07:35:45.559Z,52.68
2018-04-19T07:36:45.565Z,55.76
2018-04-19T07:37:45.574Z,55.73
2018-04-19T07:38:45.586Z,56.72
2018-04-19T07:39:45.590Z,54.74
2018-04-19T07:40:45.596Z,52.64
2018-04-19T07:41:45.604Z,52.87
2018-04-19T07:42:45.609Z,54.43
2018-04-19T07:43:45.617Z,54.62
2018-04-19T07:44:45.622Z,54.19
2018-04-19T07:45:45.629Z,52.18
2018-04-19T07:46:45.636Z,51.53
2018-04-19T07:47:45.647Z,50.96
2018-04-19T07:48:45.652Z,49.82
2018-04-19T07:49:45.662Z,49.37
2018-04-19T07:50:45.668Z,50.31
2018-04-19T07:51:45.676Z,55.87
2018-04-19T07:52:45.682Z,61.51
2018-04-19T07:53:45.689Z,64.37
2018-04-19T07:54:45.699Z,66.56
2018-04-19T07:55:45.705Z,68.07
2018-04-19T07:56:45.715Z,72.18
2018-04-19T07:57:46.191Z,75.13
2018-04-19T07:58:45.729Z,77.25
2018-04-19T07:59:45.736Z,79.36
2018-04-19T08:00:45.742Z,80.43
2018-04-19T08:01:45.744Z,79.56
2018-04-19T08:02:45.754Z,79.41
2018-04-19T08:03:45.757Z,78.54
2018-04-19T08:04:45.766Z,78.54
2018-04-19T08:05:45.772Z,78.73
2018-04-19T08:06:45.771Z,79.02
2018-04-19T08:07:45.782Z,78.83
2018-04-19T08:08:45.795Z,79.17
2018-04-19T08:09:45.799Z,80.62
2018-04-19T08:10:45.800Z,78.40
2018-04-19T08:11:45.805Z,79.21
2018-04-19T08:12:45.808Z,78.44
2018-04-19T08:13:45.813Z,78.29
2018-04-19T08:14:45.820Z,77.33
2018-04-19T08:15:45.824Z,77.71
2018-04-19T08:16:45.827Z,77.90
2018-04-19T08:17:45.832Z,76.75
2018-04-19T08:18:45.835Z,76.55
2018-04-19T08:19:45.840Z,78.77
2018-04-19T08:20:45.845Z,77.03
2018-04-19T08:21:45.855Z,76.36
2018-04-19T08:22:45.858Z,78.58
2018-04-19T08:23:45.861Z,78.15
2018-04-19T08:24:45.866Z,79.75
2018-04-19T08:25:45.869Z,80.52
2018-04-19T08:26:45.877Z,78.38
2018-04-19T08:27:45.878Z,72.77
2018-04-19T08:28:45.884Z,71.42
2018-04-19T08:29:45.887Z,72.19
2018-04-19T08:30:45.888Z,72.25
2018-04-19T08:31:45.893Z,74.43
2018-04-19T08:32:45.900Z,75.07
2018-04-19T08:33:45.906Z,77.76
2018-04-19T08:34:45.916Z,78.92
2018-04-19T08:35:45.922Z,79.79
2018-04-19T08:36:45.921Z,80.46
2018-04-19T08:37:45.934Z,80.85
2018-04-19T08:38:45.926Z,80.76
2018-04-19T08:39:45.931Z,81.72
2018-04-19T08:40:45.935Z,80.18
2018-04-19T08:41:45.941Z,80.99
2018-04-19T08:42:45.944Z,79.21
2018-04-19T08:43:45.947Z,79.60
2018-04-19T08:44:45.950Z,79.69
2018-04-19T08:45:45.957Z,80.23
2018-04-19T08:46:45.962Z,80.27
2018-04-19T08:47:45.964Z,80.76
2018-04-19T08:48:45.968Z,77.76
2018-04-19T08:49:45.976Z,78.44
2018-04-19T08:50:45.988Z,78.54
2018-04-19T08:51:45.979Z,76.61
2018-04-19T08:52:45.982Z,77.03
2018-04-19T08:53:45.987Z,78.19
2018-04-19T08:54:45.993Z,76.65
2018-04-19T08:55:45.994Z,74.85
2018-04-19T08:56:46.000Z,73.41
2018-04-19T08:57:46.004Z,72.25
2018-04-19T08:58:46.008Z,70.74
2018-04-19T08:59:46.017Z,68.07
2018-04-19T09:00:46.017Z,65.30
2018-04-19T09:01:46.020Z,64.66
2018-04-19T09:02:46.078Z,64.14
2018-04-19T09:03:46.029Z,65.30
2018-04-19T09:04:46.030Z,67.75
2018-04-19T09:05:46.036Z,71.77
2018-04-19T09:06:46.041Z,74.18
2018-04-19T09:07:46.044Z,73.18
2018-04-19T09:08:46.047Z,73.60
2018-04-19T09:09:46.049Z,75.82
2018-04-19T09:10:46.054Z,73.69
2018-04-19T09:11:46.061Z,72.34
2018-04-19T09:12:46.067Z,71.80
2018-04-19T09:13:46.076Z,73.35
2018-04-19T09:14:46.080Z,74.08
2018-04-19T09:15:46.077Z,74.66
2018-04-19T09:16:46.082Z,73.69
2018-04-19T09:17:46.085Z,73.79
2018-04-19T09:18:46.089Z,74.57
2018-04-19T09:19:46.091Z,74.24
2018-04-19T09:20:46.096Z,73.66
2018-04-19T09:21:46.098Z,76.84
2018-04-19T09:22:46.109Z,76.55
2018-04-19T09:23:46.110Z,78.86
2018-04-19T09:24:46.113Z,77.36
2018-04-19T09:25:46.117Z,76.50
2018-04-19T09:26:46.125Z,74.76
2018-04-19T09:27:46.130Z,76.20
2018-04-19T09:28:46.126Z,76.36
2018-04-19T09:29:46.130Z,76.26
2018-04-19T09:30:46.136Z,76.75
2018-04-19T09:31:46.141Z,76.68
2018-04-19T09:32:46.149Z,74.85
2018-04-19T09:33:46.147Z,74.76
2018-04-19T09:34:46.152Z,76.30
2018-04-19T09:35:46.159Z,74.57
2018-04-19T09:36:46.159Z,73.50
2018-04-19T09:37:46.163Z,77.21
2018-04-19T09:38:46.165Z,72.54
2018-04-19T09:39:46.169Z,74.18
2018-04-19T09:40:46.175Z,74.08
2018-04-19T09:41:46.177Z,73.11
2018-04-19T09:42:46.181Z,73.99
2018-04-19T09:43:46.187Z,74.18
2018-04-19T09:44:46.190Z,74.41
2018-04-19T09:45:46.194Z,74.21
2018-04-19T09:46:46.200Z,74.02
2018-04-19T09:47:46.204Z,69.97
2018-04-19T09:48:46.207Z,71.80
2018-04-19T09:49:46.211Z,70.38
2018-04-19T09:50:46.219Z,72.69
2018-04-19T09:51:46.227Z,74.95
2018-04-19T09:52:46.221Z,72.79
2018-04-19T09:53:46.236Z,73.31
2018-04-19T09:54:46.231Z,71.48
2018-04-19T09:55:46.233Z,71.34
2018-04-19T09:56:46.236Z,72.41
2018-04-19T09:57:46.237Z,72.15
2018-04-19T09:58:46.248Z,73.11
2018-04-19T09:59:46.257Z,72.92
2018-04-19T10:00:46.251Z,70.45
2018-04-19T10:01:46.260Z,69.26
2018-04-19T10:02:46.260Z,70.03
2018-04-19T10:03:46.263Z,71.12
2018-04-19T10:04:46.263Z,70.06
2018-04-19T10:05:46.270Z,69.20
2018-04-19T10:06:46.273Z,70.36
2018-04-19T10:07:46.279Z,67.17
2018-04-19T10:08:46.285Z,66.30
2018-04-19T10:09:46.285Z,67.01
2018-04-19T10:10:46.291Z,66.78
2018-04-19T10:11:46.289Z,64.76
2018-04-19T10:12:46.312Z,64.28
2018-04-19T10:13:46.311Z,63.98
2018-04-19T10:14:46.341Z,64.76
2018-04-19T10:15:46.319Z,66.11
2018-04-19T10:16:46.328Z,65.91
2018-04-19T10:17:46.320Z,64.89
2018-04-19T10:18:46.323Z,64.76
2018-04-19T10:19:46.334Z,64.47
2018-04-19T10:20:46.334Z,64.53
2018-04-19T10:21:46.331Z,64.76
2018-04-19T10:22:46.338Z,66.49
2018-04-19T10:23:46.344Z,67.30
2018-04-19T10:24:46.346Z,64.01
2018-04-19T10:25:46.352Z,63.53
2018-04-19T10:26:46.358Z,61.51
2018-04-19T10:27:46.369Z,61.57
2018-04-19T10:28:47.225Z,61.77
2018-04-19T10:29:46.368Z,63.02
2018-04-19T10:30:46.628Z,62.54
2018-04-19T10:31:46.378Z,63.79
2018-04-19T10:32:46.383Z,61.70
2018-04-19T10:33:46.437Z,61.70
2018-04-19T10:34:46.389Z,61.77
2018-04-19T10:35:46.393Z,62.95
2018-04-19T10:36:46.398Z,61.47
2018-04-19T10:37:46.401Z,61.89
2018-04-19T10:38:46.405Z,61.22
2018-04-19T10:39:46.408Z,61.12
2018-04-19T10:40:46.469Z,61.70
2018-04-19T10:41:46.416Z,61.22
2018-04-19T10:42:46.419Z,60.54
2018-04-19T10:43:46.558Z,59.86
2018-04-19T10:44:46.428Z,59.74
2018-04-19T10:45:46.534Z,59.77
2018-04-19T10:46:46.436Z,61.80
2018-04-19T10:47:46.474Z,62.50
2018-04-19T10:48:46.447Z,60.09
2018-04-19T10:49:46.450Z,58.73
2018-04-19T10:50:46.456Z,59.41
2018-04-19T10:51:46.457Z,59.41
2018-04-19T10:52:46.462Z,59.89
2018-04-19T10:53:46.463Z,59.51
2018-04-19T10:54:46.470Z,61.63
2018-04-19T10:55:46.474Z,61.44
2018-04-19T10:56:46.583Z,61.63
2018-04-19T10:57:46.485Z,62.21
2018-04-19T10:58:46.487Z,61.54
2018-04-19T10:59:46.492Z,60.18
2018-04-19T11:00:46.496Z,60.09
2018-04-19T11:01:46.500Z,59.60
2018-04-19T11:02:46.504Z,60.67
2018-04-19T11:03:46.509Z,61.34
2018-04-19T11:04:46.513Z,59.02
2018-04-19T11:05:46.517Z,57.77
2018-04-19T11:06:46.523Z,57.38
2018-04-19T11:07:46.536Z,57.19
2018-04-19T11:08:46.528Z,58.37
2018-04-19T11:09:46.534Z,59.92
2018-04-19T11:10:46.543Z,58.47
2018-04-19T11:11:46.543Z,56.90
2018-04-19T11:12:46.550Z,57.29
2018-04-19T11:13:46.551Z,58.25
2018-04-19T11:14:46.555Z,57.19
2018-04-19T11:15:46.558Z,58.67
2018-04-19T11:16:46.565Z,57.89
2018-04-19T11:17:46.569Z,57.60
2018-04-19T11:18:46.572Z,57.60
2018-04-19T11:19:46.577Z,58.37
2018-04-19T11:20:46.579Z,57.79
2018-04-19T11:21:46.584Z,57.31
2018-04-19T11:22:46.590Z,59.53
2018-04-19T11:23:46.595Z,61.40
2018-04-19T11:24:46.596Z,58.40
2018-04-19T11:25:46.600Z,58.02
2018-04-19T11:26:46.608Z,58.60
2018-04-19T11:27:46.611Z,56.57
2018-04-19T11:28:46.617Z,56.86
2018-04-19T11:29:46.619Z,57.24
2018-04-19T11:30:46.624Z,56.47
2018-04-19T11:31:46.631Z,56.37
2018-04-19T11:32:47.056Z,56.76
2018-04-19T11:33:46.642Z,57.92
2018-04-19T11:34:46.643Z,56.98
2018-04-19T11:35:46.649Z,55.89
2018-04-19T11:36:46.959Z,56.09
2018-04-19T11:37:46.681Z,55.99
2018-04-19T11:38:46.662Z,56.47
2018-04-19T11:39:46.999Z,56.86
2018-04-19T11:40:46.847Z,56.67
2018-04-19T11:41:46.679Z,55.60
2018-04-19T11:42:46.680Z,55.70
2018-04-19T11:43:46.691Z,55.99
2018-04-19T11:44:46.691Z,55.99
2018-04-19T11:45:46.696Z,57.24
2018-04-19T11:46:46.702Z,56.86
2018-04-19T11:47:46.703Z,56.47
2018-04-19T11:48:46.709Z,55.99
2018-04-19T11:49:46.714Z,54.73
2018-04-19T11:50:46.719Z,55.21
2018-04-19T11:51:46.724Z,56.60
2018-04-19T11:52:47.104Z,55.51
2018-04-19T11:53:46.758Z,55.53
2018-04-19T11:54:46.748Z,56.47
2018-04-19T11:55:46.753Z,56.76
2018-04-19T11:56:46.747Z,57.73
2018-04-19T11:57:46.753Z,57.86
2018-04-19T11:58:46.759Z,57.05
2018-04-19T11:59:46.767Z,56.95
2018-04-19T12:00:46.831Z,57.05
2018-04-19T12:01:46.772Z,56.57
2018-04-19T12:02:46.776Z,56.76
2018-04-19T12:03:46.780Z,57.15
2018-04-19T12:04:46.786Z,57.15
2018-04-19T12:05:46.793Z,56.95
2018-04-19T12:06:46.806Z,57.34
2018-04-19T12:07:46.927Z,57.63
2018-04-19T12:08:46.861Z,57.82
2018-04-19T12:09:46.810Z,58.44
2018-04-19T12:10:46.813Z,56.57
2018-04-19T12:11:46.817Z,57.34
2018-04-19T12:12:46.931Z,57.66
2018-04-19T12:13:47.005Z,56.79
2018-04-19T12:14:46.832Z,58.34
2018-04-19T12:15:46.839Z,57.40
2018-04-19T12:16:46.836Z,58.34
2018-04-19T12:17:46.850Z,57.08
2018-04-19T12:18:46.853Z,55.82
2018-04-19T12:19:46.933Z,55.43
2018-04-19T12:20:46.865Z,55.53
2018-04-19T12:21:46.867Z,56.02
2018-04-19T12:22:46.947Z,55.05
2018-04-19T12:23:46.879Z,55.85
2018-04-19T12:24:47.073Z,54.79
2018-04-19T12:25:46.887Z,55.17
2018-04-19T12:26:46.892Z,55.94
2018-04-19T12:27:47.311Z,54.59
2018-04-19T12:28:47.006Z,53.63
2018-04-19T12:29:46.990Z,53.14
2018-04-19T12:30:46.912Z,54.30
2018-04-19T12:31:46.918Z,53.72
2018-04-19T12:32:46.922Z,53.81
2018-04-19T12:33:46.925Z,54.69
2018-04-19T12:34:46.953Z,54.57
2018-04-19T12:35:47.104Z,55.24
2018-04-19T12:36:46.975Z,56.40
2018-04-19T12:37:46.948Z,56.24
2018-04-19T12:38:46.958Z,55.94
2018-04-19T12:39:46.963Z,57.11
2018-04-19T12:40:46.963Z,54.79
2018-04-19T12:41:46.995Z,55.07
2018-04-19T12:42:47.052Z,55.27
2018-04-19T12:43:46.980Z,55.30
2018-04-19T12:44:47.199Z,54.71
2018-04-19T12:45:46.992Z,54.81
2018-04-19T12:46:46.995Z,53.65
2018-04-19T12:47:47.001Z,53.04
2018-04-19T12:48:47.007Z,53.81
2018-04-19T12:49:47.014Z,54.69
2018-04-19T12:50:47.021Z,54.30
2018-04-19T12:51:47.029Z,55.17
2018-04-19T12:52:47.032Z,54.59